createdAt,value
2019-03-17T00:02:29.349Z,5.20
2019-03-17T00:07:38.518Z,4.94
2019-03-17T00:12:47.574Z,6.72
2019-03-17T00:17:56.716Z,6.98
2019-03-17T00:23:05.805Z,5.12
2019-03-17T00:28:15.022Z,8.08
2019-03-17T00:33:24.078Z,8.08
2019-03-17T00:38:33.166Z,6.62
2019-03-17T00:43:42.239Z,9.88
2019-03-17T00:48:51.347Z,6.27
2019-03-17T00:54:00.414Z,9.11
2019-03-17T00:59:09.557Z,9.62
2019-03-17T01:04:18.635Z,10.78
2019-03-17T01:09:27.789Z,12.86
2019-03-17T01:14:36.896Z,9.64
2019-03-17T01:19:46.102Z,12.18
2019-03-17T01:24:55.174Z,8.41
2019-03-17T01:30:04.247Z,11.92
2019-03-17T01:35:13.295Z,9.87
2019-03-17T01:40:22.698Z,8.70
2019-03-17T01:45:31.863Z,10.54
2019-03-17T01:50:40.977Z,11.60
2019-03-17T01:55:50.042Z,10.37
2019-03-17T02:00:59.182Z,8.28
2019-03-17T02:06:08.255Z,7.18
2019-03-17T02:11:17.360Z,6.43
2019-03-17T02:16:26.421Z,4.86
2019-03-17T02:21:35.550Z,5.81
2019-03-17T02:26:44.622Z,5.00
2019-03-17T02:31:53.779Z,7.91
2019-03-17T02:37:02.858Z,6.58
2019-03-17T02:42:11.990Z,3.67
2019-03-17T02:47:21.090Z,4.28
2019-03-17T02:52:30.218Z,7.72
2019-03-17T02:57:39.298Z,7.24
2019-03-17T03:02:48.342Z,8.72
2019-03-17T03:07:57.407Z,7.49
2019-03-17T03:13:06.534Z,8.00
2019-03-17T03:18:15.605Z,6.17
2019-03-17T03:23:24.764Z,6.53
2019-03-17T03:28:33.804Z,5.56
2019-03-17T03:33:44.171Z,5.85
2019-03-17T03:38:43.197Z,7.00
2019-03-17T03:43:52.362Z,7.19
2019-03-17T03:49:01.374Z,5.26
2019-03-17T03:54:10.549Z,6.02
2019-03-17T03:59:19.559Z,5.30
2019-03-17T04:04:28.698Z,7.28
2019-03-17T04:09:37.741Z,7.51
2019-03-17T04:14:46.922Z,4.32
2019-03-17T04:19:55.999Z,5.15
2019-03-17T04:25:05.179Z,4.26
2019-03-17T04:30:14.214Z,6.87
2019-03-17T04:35:23.342Z,5.04
2019-03-17T04:40:32.406Z,4.95
2019-03-17T04:45:41.538Z,4.71
2019-03-17T04:50:50.718Z,5.58
2019-03-17T04:55:59.890Z,6.69
2019-03-17T05:01:08.938Z,7.63
2019-03-17T05:06:18.018Z,8.24
2019-03-17T05:11:27.094Z,6.91
2019-03-17T05:16:36.324Z,5.33
2019-03-17T05:21:45.402Z,10.28
2019-03-17T05:26:54.541Z,9.13
2019-03-17T05:32:03.565Z,4.65
2019-03-17T05:37:12.709Z,4.37
2019-03-17T05:42:21.897Z,2.41
2019-03-17T05:47:31.030Z,1.96
2019-03-17T05:52:40.090Z,1.63
2019-03-17T05:57:49.223Z,1.93
2019-03-17T06:02:58.317Z,2.87
2019-03-17T06:08:07.444Z,3.61
2019-03-17T06:13:16.474Z,2.82
2019-03-17T06:18:25.650Z,5.27
2019-03-17T06:23:34.653Z,5.07
2019-03-17T06:28:43.786Z,5.59
2019-03-17T06:33:52.846Z,6.00
2019-03-17T06:39:02.257Z,6.10
2019-03-17T06:44:11.313Z,4.26
2019-03-17T06:49:20.390Z,4.43
2019-03-17T06:54:29.469Z,4.92
2019-03-17T06:59:38.570Z,2.01
2019-03-17T07:04:47.762Z,1.58
2019-03-17T07:09:57.271Z,3.20
2019-03-17T07:15:06.352Z,3.68
2019-03-17T07:20:15.429Z,3.46
2019-03-17T07:25:24.522Z,3.55
2019-03-17T07:30:33.686Z,3.26
2019-03-17T07:35:42.862Z,6.77
2019-03-17T07:40:51.962Z,4.59
2019-03-17T07:46:01.022Z,5.11
2019-03-17T07:51:10.141Z,4.69
2019-03-17T07:56:19.224Z,7.39
2019-03-17T08:01:28.470Z,5.62
2019-03-17T08:06:37.551Z,7.83
2019-03-17T08:11:46.734Z,6.34
2019-03-17T08:16:55.803Z,4.90
2019-03-17T08:22:05.167Z,6.16
2019-03-17T08:27:14.190Z,4.40
2019-03-17T08:32:23.324Z,4.13
2019-03-17T08:37:32.403Z,3.31
2019-03-17T08:42:44.770Z,4.99
2019-03-17T08:47:56.773Z,2.98
2019-03-17T08:52:52.429Z,3.95
2019-03-17T08:58:01.522Z,5.27
2019-03-17T09:03:10.595Z,7.48
2019-03-17T09:08:19.702Z,4.21
2019-03-17T09:13:28.790Z,6.15
2019-03-17T09:18:37.970Z,3.46
2019-03-17T09:23:47.030Z,4.57
2019-03-17T09:28:56.199Z,3.45
2019-03-17T09:34:05.256Z,11.35
2019-03-17T09:39:14.364Z,10.65
2019-03-17T09:44:23.400Z,15.14
2019-03-17T09:49:32.515Z,12.82
2019-03-17T09:54:41.594Z,9.73
2019-03-17T09:59:50.750Z,8.64
2019-03-17T10:05:00.558Z,13.23
2019-03-17T10:10:09.674Z,17.63
2019-03-17T10:15:18.758Z,20.00
2019-03-17T10:20:27.997Z,18.09
2019-03-17T10:25:36.954Z,18.20
2019-03-17T10:30:46.116Z,16.07
2019-03-17T10:35:55.207Z,14.39
2019-03-17T10:41:05.251Z,15.73
2019-03-17T10:46:04.274Z,17.12
2019-03-17T10:51:13.430Z,19.96
2019-03-17T10:56:22.678Z,16.55
2019-03-17T11:01:32.282Z,14.51
2019-03-17T11:06:41.365Z,21.12
2019-03-17T11:11:50.467Z,14.96
2019-03-17T11:16:59.611Z,12.34
2019-03-17T11:22:08.734Z,12.75
2019-03-17T11:27:17.786Z,13.87
2019-03-17T11:32:26.982Z,11.53
2019-03-17T11:37:36.014Z,12.46
2019-03-17T11:42:45.238Z,12.25
2019-03-17T11:47:54.332Z,10.73
2019-03-17T11:53:03.696Z,11.87
2019-03-17T11:58:12.750Z,11.49
2019-03-17T12:03:22.045Z,13.31
2019-03-17T12:08:31.274Z,11.64
2019-03-17T12:13:40.399Z,14.15
2019-03-17T12:18:49.918Z,13.23
2019-03-17T12:23:59.578Z,11.33
2019-03-17T12:29:08.667Z,12.23
2019-03-17T12:34:27.778Z,14.15
2019-03-17T12:39:26.390Z,16.70
2019-03-17T12:44:35.507Z,14.16
2019-03-17T12:49:44.522Z,11.55
2019-03-17T12:54:53.755Z,12.12
2019-03-17T13:00:02.842Z,9.83
2019-03-17T13:05:12.090Z,12.76
2019-03-17T13:10:21.124Z,11.78
2019-03-17T13:15:30.245Z,13.25
2019-03-17T13:20:39.333Z,14.29
2019-03-17T13:25:48.487Z,13.58
2019-03-17T13:30:57.590Z,10.56
2019-03-17T13:36:06.823Z,11.94
2019-03-17T13:41:15.836Z,9.76
2019-03-17T13:46:24.931Z,9.77
2019-03-17T13:51:33.983Z,9.18
2019-03-17T13:56:43.132Z,8.53
2019-03-17T14:01:52.283Z,11.28
2019-03-17T14:07:01.476Z,11.56
2019-03-17T14:12:10.582Z,12.02
2019-03-17T14:17:19.759Z,10.53
2019-03-17T14:22:28.796Z,16.03
2019-03-17T14:27:37.881Z,12.19
2019-03-17T14:32:46.895Z,11.81
2019-03-17T14:37:56.102Z,10.81
2019-03-17T14:43:05.129Z,8.87
2019-03-17T14:48:14.397Z,14.73
2019-03-17T14:53:23.472Z,11.50
2019-03-17T14:58:32.666Z,11.63
2019-03-17T15:03:41.728Z,10.56
2019-03-17T15:08:50.838Z,8.65
2019-03-17T15:14:00.251Z,9.07
2019-03-17T15:19:09.410Z,9.65
2019-03-17T15:24:18.481Z,15.28
2019-03-17T15:29:27.648Z,13.54
2019-03-17T15:34:36.701Z,11.53
2019-03-17T15:39:45.834Z,14.53
2019-03-17T15:44:54.894Z,12.29
2019-03-17T15:50:07.448Z,10.97
2019-03-17T15:55:06.486Z,11.32
2019-03-17T16:00:25.043Z,13.05
2019-03-17T16:05:24.238Z,14.67
2019-03-17T16:10:33.442Z,15.81
2019-03-17T16:15:42.678Z,12.88
2019-03-17T16:20:52.363Z,15.77
2019-03-17T16:26:01.747Z,12.57
2019-03-17T16:31:11.362Z,18.51
2019-03-17T16:36:19.462Z,17.40
2019-03-17T16:41:28.538Z,17.42
2019-03-17T16:46:37.579Z,13.13
2019-03-17T16:51:46.750Z,12.03
2019-03-17T16:56:55.789Z,11.32
2019-03-17T17:02:04.976Z,12.07
2019-03-17T17:07:14.066Z,12.59
2019-03-17T17:12:23.178Z,9.40
2019-03-17T17:17:32.434Z,13.34
2019-03-17T17:22:41.554Z,12.06
2019-03-17T17:27:50.650Z,11.86
2019-03-17T17:32:59.878Z,13.35
2019-03-17T17:38:08.926Z,10.08
2019-03-17T17:43:18.098Z,11.48
2019-03-17T17:48:27.179Z,11.59
2019-03-17T17:53:36.266Z,10.47
2019-03-17T17:58:45.341Z,10.52
2019-03-17T18:03:54.498Z,9.60
2019-03-17T18:09:03.527Z,9.31
2019-03-17T18:14:12.620Z,8.26
2019-03-17T18:19:21.686Z,10.73
2019-03-17T18:24:30.834Z,9.85
2019-03-17T18:29:39.886Z,9.61
2019-03-17T18:34:50.649Z,6.93
2019-03-17T18:39:57.648Z,10.58
2019-03-17T18:45:06.833Z,11.49
2019-03-17T18:50:20.611Z,10.56
2019-03-17T18:55:24.566Z,9.39
2019-03-17T19:00:33.671Z,12.17
2019-03-17T19:05:42.790Z,8.92
2019-03-17T19:10:51.892Z,6.91
2019-03-17T19:16:01.617Z,4.78
2019-03-17T19:21:10.641Z,8.77
2019-03-17T19:26:19.837Z,5.21
2019-03-17T19:31:28.883Z,5.36
2019-03-17T19:36:38.011Z,5.41
2019-03-17T19:41:47.103Z,5.86
2019-03-17T19:46:56.214Z,9.94
2019-03-17T19:52:05.430Z,4.84
2019-03-17T19:57:14.538Z,9.20
2019-03-17T20:02:23.634Z,5.97
2019-03-17T20:07:32.771Z,7.16
2019-03-17T20:12:41.921Z,7.07
2019-03-17T20:17:50.981Z,6.36
2019-03-17T20:23:00.030Z,8.56
2019-03-17T20:28:09.169Z,7.69
2019-03-17T20:33:18.286Z,8.68
2019-03-17T20:38:27.433Z,6.39
2019-03-17T20:43:36.502Z,8.15
2019-03-17T20:48:45.639Z,7.83
2019-03-17T20:53:54.674Z,8.29
2019-03-17T20:59:03.849Z,7.37
2019-03-17T21:04:12.903Z,6.30
2019-03-17T21:09:21.983Z,7.77
2019-03-17T21:14:31.058Z,7.89
2019-03-17T21:19:40.243Z,6.18
2019-03-17T21:24:49.322Z,7.11
2019-03-17T21:29:58.434Z,7.02
2019-03-17T21:35:07.529Z,7.15
2019-03-17T21:40:16.620Z,7.18
2019-03-17T21:45:27.500Z,6.95
2019-03-17T21:50:34.393Z,7.55
2019-03-17T21:55:43.447Z,7.90
2019-03-17T22:00:52.639Z,4.88
2019-03-17T22:06:02.355Z,8.15
2019-03-17T22:11:11.580Z,9.54
2019-03-17T22:16:20.644Z,5.76
2019-03-17T22:21:29.904Z,6.27
2019-03-17T22:26:38.982Z,6.98
2019-03-17T22:31:48.203Z,6.27
2019-03-17T22:36:57.182Z,7.25
2019-03-17T22:42:06.500Z,6.87
2019-03-17T22:47:15.698Z,8.80
2019-03-17T22:52:24.885Z,6.70
2019-03-17T22:57:33.979Z,5.78
2019-03-17T23:02:43.151Z,8.46
2019-03-17T23:07:52.219Z,6.77
2019-03-17T23:13:01.337Z,8.17
2019-03-17T23:18:10.436Z,6.99
2019-03-17T23:23:19.569Z,11.30
2019-03-17T23:28:28.693Z,8.61
2019-03-17T23:33:37.773Z,8.30
2019-03-17T23:38:46.837Z,11.45
2019-03-17T23:43:56.007Z,9.81
2019-03-17T23:49:05.066Z,9.32
2019-03-17T23:54:14.194Z,7.77
2019-03-17T23:59:23.394Z,11.00
